Wednesday, December 19, 2018, 12:33 AM EST
Back to Local

KFRG, Farmingdale Republic Airport

Location: Farmingdale, NY, United States Lat: 40.733
Local Time: 12:33 AM EST ( 5:33 GMT) Lon: -73.417
Time Zone: US/Eastern Elev: 82 ft

Show me the last for .
Show Decoded

2018-12-18 23:53 METAR KFRG 190453Z AUTO 33005KT 10SM CLR M03/M10 A3013 RMK AO2 SLP201 T10331100
                 400391033 =
2018-12-18 22:53 METAR KFRG 190353Z 33007KT 10SM CLR M03/M11 A3014 RMK AO2 SLP207 T10281106 =
2018-12-18 21:53 METAR KFRG 190253Z 32009KT 10SM CLR M02/M11 A3012 RMK AO2 SLP201 T10221106 58001
                 =
2018-12-18 20:53 METAR KFRG 190153Z 33006KT 10SM CLR M02/M10 A3014 RMK AO2 SLP206 T10171100 =
2018-12-18 19:53 METAR KFRG 190053Z 32007G15KT 10SM CLR M01/M10 A3014 RMK AO2 SLP205 T10111100 =
2018-12-18 18:53 METAR KFRG 182353Z 33012KT 10SM CLR M01/M10 A3013 RMK AO2 SLP201 T10061100 10017
                 21006 51018 =
2018-12-18 17:53 METAR KFRG 182253Z 33009KT 10SM CLR 00/M11 A3011 RMK AO2 SLP197 T00001106 =
2018-12-18 16:53 METAR KFRG 182153Z 32008KT 10SM CLR 00/M11 A3009 RMK AO2 SLP191 T00001106 =
2018-12-18 15:53 METAR KFRG 182053Z 31007G17KT 10SM CLR 01/M11 A3007 RMK AO2 SLP183 T00111106
                 53020 =
2018-12-18 14:53 METAR KFRG 181953Z 33013G19KT 10SM CLR 01/M11 A3004 RMK AO2 SLP173 T00111111 =
2018-12-18 13:53 METAR KFRG 181853Z 33016G25KT 10SM CLR 01/M12 A3002 RMK AO2 SLP165 T00111117 =
2018-12-18 12:53 METAR KFRG 181753Z 30014G21KT 10SM CLR 01/M11 A3001 RMK AO2 SLP163 T00061111
                 10017 21011 55000 =
2018-12-18 11:53 METAR KFRG 181653Z 34011G20KT 10SM CLR 01/M11 A3001 RMK AO2 SLP163 T00061111 =
2018-12-18 10:53 METAR KFRG 181553Z 33015G24KT 10SM CLR 00/M11 A3001 RMK AO2 SLP164 T00001106 =
2018-12-18 09:53 METAR KFRG 181453Z 34010G19KT 10SM FEW042 M01/M11 A3001 RMK AO2 PK WND
                 33026/1417 SLP164 T10061106 51031 =
2018-12-18 08:53 METAR KFRG 181353Z 34017G29KT 10SM CLR M01/M11 A3000 RMK AO2 PK WND 33031/1309
                 SLP158 T10111106 =
2018-12-18 07:53 METAR KFRG 181253Z 33022G34KT 10SM CLR M01/M11 A2996 RMK AO2 PK WND 33034/1252
                 SLP146 T10111106 =
2018-12-18 06:53 METAR KFRG 181153Z AUTO 34014G23KT 10SM SCT045 M01/M10 A2992 RMK AO2 PK WND
                 33033/1104 SLP133 T10061100 10033 21006 53036 =
2018-12-18 05:53 METAR KFRG 181053Z AUTO 32020G35KT 10SM CLR 00/M10 A2987 RMK AO2 PK WND
                 33035/1045 SLP115 T00001100 =
2018-12-18 04:53 METAR KFRG 180953Z AUTO 33019G33KT 10SM CLR 00/M10 A2985 RMK AO2 PK WND
                 32036/0941 SLP108 T00001100 =
2018-12-18 03:53 METAR KFRG 180853Z AUTO 32019G33KT 10SM CLR 01/M09 A2982 RMK AO2 PK WND
                 33033/0844 SLP097 T00111094 53021 =
2018-12-18 02:53 METAR KFRG 180753Z AUTO 33014G28KT 10SM CLR 02/M08 A2979 RMK AO2 PK WND
                 32033/0724 SLP088 T00221083 =
2018-12-18 01:53 METAR KFRG 180653Z AUTO 32015G25KT 10SM FEW050 03/M07 A2977 RMK AO2 PK WND
                 30034/0556 SLP083 T00281072 =
2018-12-18 00:53 METAR KFRG 180553Z 31017G35KT 10SM SCT055 03/M08 A2976 RMK AO2 PK WND 32038/0526
                 SLP077 T00331078 10056 20033 55001 =

Support USWX by starting your Amazon purchase here.